sensor_id;sensor_type;location;lat;lon;timestamp;temperature;humidity
9861;DHT22;4969;52.304;4.968;2023-05-16T00:00:14;11.03;73.13
9861;DHT22;4969;52.304;4.968;2023-05-16T00:02:41;10.79;70.54
9861;DHT22;4969;52.304;4.968;2023-05-16T00:05:08;10.88;77.27
9861;DHT22;4969;52.304;4.968;2023-05-16T00:07:41;10.42;72.88
9861;DHT22;4969;52.304;4.968;2023-05-16T00:10:08;10.55;73.71
9861;DHT22;4969;52.304;4.968;2023-05-16T00:12:36;10.81;71.07
9861;DHT22;4969;52.304;4.968;2023-05-16T00:15:04;11.50;73.63
9861;DHT22;4969;52.304;4.968;2023-05-16T00:17:34;11.13;72.94
9861;DHT22;4969;52.304;4.968;2023-05-16T00:20:01;11.54;76.52
9861;DHT22;4969;52.304;4.968;2023-05-16T00:22:35;11.47;77.88
9861;DHT22;4969;52.304;4.968;2023-05-16T00:25:02;11.00;70.70
9861;DHT22;4969;52.304;4.968;2023-05-16T00:27:28;10.60;69.63
9861;DHT22;4969;52.304;4.968;2023-05-16T00:29:56;10.72;71.33
9861;DHT22;4969;52.304;4.968;2023-05-16T00:32:23;10.82;70.98
9861;DHT22;4969;52.304;4.968;2023-05-16T00:34:50;10.61;72.36
9861;DHT22;4969;52.304;4.968;2023-05-16T00:37:16;10.58;70.72
9861;DHT22;4969;52.304;4.968;2023-05-16T00:39:43;11.57;76.80
9861;DHT22;4969;52.304;4.968;2023-05-16T00:42:09;11.78;76.62
9861;DHT22;4969;52.304;4.968;2023-05-16T00:44:36;10.54;70.81
9861;DHT22;4969;52.304;4.968;2023-05-16T00:47:05;11.27;73.59
9861;DHT22;4969;52.304;4.968;2023-05-16T00:49:32;10.99;73.16
9861;DHT22;4969;52.304;4.968;2023-05-16T00:51:59;10.60;74.94
9861;DHT22;4969;52.304;4.968;2023-05-16T00:54:26;10.38;72.89
9861;DHT22;4969;52.304;4.968;2023-05-16T00:56:54;10.81;71.69
9861;DHT22;4969;52.304;4.968;2023-05-16T00:59:20;10.67;70.75
9861;DHT22;4969;52.304;4.968;2023-05-16T01:01:47;11.02;74.45
9861;DHT22;4969;52.304;4.968;2023-05-16T01:04:16;10.79;70.34
9861;DHT22;4969;52.304;4.968;2023-05-16T01:06:43;11.72;75.16
9861;DHT22;4969;52.304;4.968;2023-05-16T01:09:10;11.85;69.51
9861;DHT22;4969;52.304;4.968;2023-05-16T01:11:44;12.47;74.80
9861;DHT22;4969;52.304;4.968;2023-05-16T01:14:18;11.97;74.71
9861;DHT22;4969;52.304;4.968;2023-05-16T01:16:47;12.19;78.13
9861;DHT22;4969;52.304;4.968;2023-05-16T01:19:31;11.19;67.42
9861;DHT22;4969;52.304;4.968;2023-05-16T01:22:10;11.40;72.57
9861;DHT22;4969;52.304;4.968;2023-05-16T01:24:43;10.96;72.90
9861;DHT22;4969;52.304;4.968;2023-05-16T01:27:18;11.76;78.47
9861;DHT22;4969;52.304;4.968;2023-05-16T01:29:45;11.00;69.71
9861;DHT22;4969;52.304;4.968;2023-05-16T01:32:11;11.14;74.33
9861;DHT22;4969;52.304;4.968;2023-05-16T01:34:38;11.82;74.73
9861;DHT22;4969;52.304;4.968;2023-05-16T01:37:11;12.02;70.14
9861;DHT22;4969;52.304;4.968;2023-05-16T01:39:44;11.37;67.72
9861;DHT22;4969;52.304;4.968;2023-05-16T01:42:13;10.96;71.78
9861;DHT22;4969;52.304;4.968;2023-05-16T01:44:44;11.76;72.85
9861;DHT22;4969;52.304;4.968;2023-05-16T01:47:15;11.51;73.09
9861;DHT22;4969;52.304;4.968;2023-05-16T01:49:45;11.43;73.06
9861;DHT22;4969;52.304;4.968;2023-05-16T01:52:15;11.55;71.51
9861;DHT22;4969;52.304;4.968;2023-05-16T01:54:44;12.06;76.52
9861;DHT22;4969;52.304;4.968;2023-05-16T01:57:12;11.06;69.55
9861;DHT22;4969;52.304;4.968;2023-05-16T01:59:39;10.69;69.43
9861;DHT22;4969;52.304;4.968;2023-05-16T02:02:08;10.96;70.30
9861;DHT22;4969;52.304;4.968;2023-05-16T02:04:34;11.74;72.61
9861;DHT22;4969;52.304;4.968;2023-05-16T02:07:01;12.02;75.59
9861;DHT22;4969;52.304;4.968;2023-05-16T02:09:28;12.51;75.53
9861;DHT22;4969;52.304;4.968;2023-05-16T02:11:54;13.06;73.77
9861;DHT22;4969;52.304;4.968;2023-05-16T02:14:21;13.34;76.42
9861;DHT22;4969;52.304;4.968;2023-05-16T02:16:49;12.09;68.21
9861;DHT22;4969;52.304;4.968;2023-05-16T02:19:17;12.38;69.99
9861;DHT22;4969;52.304;4.968;2023-05-16T02:21:44;11.92;68.34
9861;DHT22;4969;52.304;4.968;2023-05-16T02:24:10;11.90;69.86
9861;DHT22;4969;52.304;4.968;2023-05-16T02:26:37;11.46;70.20
9861;DHT22;4969;52.304;4.968;2023-05-16T02:29:04;11.75;69.56
9861;DHT22;4969;52.304;4.968;2023-05-16T02:31:32;12.52;74.03
9861;DHT22;4969;52.304;4.968;2023-05-16T02:33:59;12.51;72.67
9861;DHT22;4969;52.304;4.968;2023-05-16T02:36:27;13.16;72.04
9861;DHT22;4969;52.304;4.968;2023-05-16T02:38:55;13.41;74.26
9861;DHT22;4969;52.304;4.968;2023-05-16T02:41:21;12.54;67.05
9861;DHT22;4969;52.304;4.968;2023-05-16T02:43:48;11.67;68.69
9861;DHT22;4969;52.304;4.968;2023-05-16T02:46:22;11.19;73.33
9861;DHT22;4969;52.304;4.968;2023-05-16T02:48:49;11.24;70.87
9861;DHT22;4969;52.304;4.968;2023-05-16T02:51:16;11.78;72.52
9861;DHT22;4969;52.304;4.968;2023-05-16T02:53:44;12.52;73.35
9861;DHT22;4969;52.304;4.968;2023-05-16T02:56:10;12.10;73.20
9861;DHT22;4969;52.304;4.968;2023-05-16T02:58:37;12.41;72.14
9861;DHT22;4969;52.304;4.968;2023-05-16T03:01:04;12.96;77.43
9861;DHT22;4969;52.304;4.968;2023-05-16T03:03:30;12.38;70.20
9861;DHT22;4969;52.304;4.968;2023-05-16T03:05:57;11.97;71.07
9861;DHT22;4969;52.304;4.968;2023-05-16T03:08:24;12.79;73.14
9861;DHT22;4969;52.304;4.968;2023-05-16T03:10:51;12.99;75.02
9861;DHT22;4969;52.304;4.968;2023-05-16T03:13:18;13.77;75.28
9861;DHT22;4969;52.304;4.968;2023-05-16T03:15:45;14.40;75.05
9861;DHT22;4969;52.304;4.968;2023-05-16T03:18:11;14.61;74.15
9861;DHT22;4969;52.304;4.968;2023-05-16T03:20:38;14.68;73.56
9861;DHT22;4969;52.304;4.968;2023-05-16T03:23:04;14.40;70.02
9861;DHT22;4969;52.304;4.968;2023-05-16T03:25:32;14.51;71.45
9861;DHT22;4969;52.304;4.968;2023-05-16T03:27:59;14.40;72.01
9861;DHT22;4969;52.304;4.968;2023-05-16T03:30:26;14.52;72.49
9861;DHT22;4969;52.304;4.968;2023-05-16T03:32:53;14.07;68.85
9861;DHT22;4969;52.304;4.968;2023-05-16T03:35:20;14.24;72.04
9861;DHT22;4969;52.304;4.968;2023-05-16T03:37:46;14.42;71.80
9861;DHT22;4969;52.304;4.968;2023-05-16T03:40:13;13.78;68.91
9861;DHT22;4969;52.304;4.968;2023-05-16T03:42:40;13.58;64.99
9861;DHT22;4969;52.304;4.968;2023-05-16T03:45:09;13.75;73.28
9861;DHT22;4969;52.304;4.968;2023-05-16T03:47:36;13.88;70.74
9861;DHT22;4969;52.304;4.968;2023-05-16T03:50:03;14.09;76.04
9861;DHT22;4969;52.304;4.968;2023-05-16T03:52:30;13.62;71.63
9861;DHT22;4969;52.304;4.968;2023-05-16T03:54:57;13.57;65.58
9861;DHT22;4969;52.304;4.968;2023-05-16T03:57:23;13.23;65.12
9861;DHT22;4969;52.304;4.968;2023-05-16T03:59:50;13.12;66.75
9861;DHT22;4969;52.304;4.968;2023-05-16T04:02:18;12.95;65.17
9861;DHT22;4969;52.304;4.968;2023-05-16T04:04:44;12.93;68.99
9861;DHT22;4969;52.304;4.968;2023-05-16T04:07:11;12.51;65.48
9861;DHT22;4969;52.304;4.968;2023-05-16T04:09:38;12.44;69.38
9861;DHT22;4969;52.304;4.968;2023-05-16T04:12:05;12.31;67.96
9861;DHT22;4969;52.304;4.968;2023-05-16T04:14:33;11.61;67.79
9861;DHT22;4969;52.304;4.968;2023-05-16T04:17:00;12.26;72.14
9861;DHT22;4969;52.304;4.968;2023-05-16T04:19:28;12.64;72.58
9861;DHT22;4969;52.304;4.968;2023-05-16T04:21:54;12.85;69.40
9861;DHT22;4969;52.304;4.968;2023-05-16T04:24:21;12.69;70.69
9861;DHT22;4969;52.304;4.968;2023-05-16T04:26:50;13.50;75.60
9861;DHT22;4969;52.304;4.968;2023-05-16T04:29:17;13.57;69.65
9861;DHT22;4969;52.304;4.968;2023-05-16T04:31:43;13.31;66.04
9861;DHT22;4969;52.304;4.968;2023-05-16T04:34:10;12.14;66.67
9861;DHT22;4969;52.304;4.968;2023-05-16T04:36:38;11.37;72.75
9861;DHT22;4969;52.304;4.968;2023-05-16T04:39:05;10.83;68.26
9861;DHT22;4969;52.304;4.968;2023-05-16T04:41:32;10.48;69.44
9861;DHT22;4969;52.304;4.968;2023-05-16T04:44:01;10.54;70.85
9861;DHT22;4969;52.304;4.968;2023-05-16T04:46:28;10.85;72.90
9861;DHT22;4969;52.304;4.968;2023-05-16T04:48:55;10.86;69.81
9861;DHT22;4969;52.304;4.968;2023-05-16T04:51:21;10.79;71.38
9861;DHT22;4969;52.304;4.968;2023-05-16T04:53:50;10.78;77.02
9861;DHT22;4969;52.304;4.968;2023-05-16T04:56:16;10.55;70.57
9861;DHT22;4969;52.304;4.968;2023-05-16T04:58:43;11.04;71.02
9861;DHT22;4969;52.304;4.968;2023-05-16T05:01:09;10.45;70.82
9861;DHT22;4969;52.304;4.968;2023-05-16T05:03:36;10.67;69.70
9861;DHT22;4969;52.304;4.968;2023-05-16T05:06:03;10.86;69.84
9861;DHT22;4969;52.304;4.968;2023-05-16T05:08:29;10.49;71.06
9861;DHT22;4969;52.304;4.968;2023-05-16T05:10:57;10.74;74.88
9861;DHT22;4969;52.304;4.968;2023-05-16T05:13:24;11.17;73.74
9861;DHT22;4969;52.304;4.968;2023-05-16T05:15:50;11.13;72.29
9861;DHT22;4969;52.304;4.968;2023-05-16T05:18:17;10.65;70.34
9861;DHT22;4969;52.304;4.968;2023-05-16T05:20:43;10.42;70.63
9861;DHT22;4969;52.304;4.968;2023-05-16T05:23:10;10.96;69.96
9861;DHT22;4969;52.304;4.968;2023-05-16T05:25:37;10.99;69.02
9861;DHT22;4969;52.304;4.968;2023-05-16T05:28:05;10.82;71.84
9861;DHT22;4969;52.304;4.968;2023-05-16T05:30:32;10.86;69.62
9861;DHT22;4969;52.304;4.968;2023-05-16T05:32:58;10.58;70.07
9861;DHT22;4969;52.304;4.968;2023-05-16T05:35:25;10.49;70.31
9861;DHT22;4969;52.304;4.968;2023-05-16T05:37:51;10.91;69.99
9861;DHT22;4969;52.304;4.968;2023-05-16T05:40:18;10.93;68.70
9861;DHT22;4969;52.304;4.968;2023-05-16T05:42:44;11.19;70.82
9861;DHT22;4969;52.304;4.968;2023-05-16T05:45:13;11.47;73.77
9861;DHT22;4969;52.304;4.968;2023-05-16T05:47:40;11.17;67.24
9861;DHT22;4969;52.304;4.968;2023-05-16T05:50:08;11.10;68.94
9861;DHT22;4969;52.304;4.968;2023-05-16T05:52:35;11.74;73.42
9861;DHT22;4969;52.304;4.968;2023-05-16T05:55:03;11.74;67.40
9861;DHT22;4969;52.304;4.968;2023-05-16T05:57:30;11.68;67.93
9861;DHT22;4969;52.304;4.968;2023-05-16T05:59:56;11.34;69.49
9861;DHT22;4969;52.304;4.968;2023-05-16T06:02:24;11.43;67.64
9861;DHT22;4969;52.304;4.968;2023-05-16T06:04:50;11.47;68.09
9861;DHT22;4969;52.304;4.968;2023-05-16T06:07:17;11.28;68.91
9861;DHT22;4969;52.304;4.968;2023-05-16T06:09:44;11.72;72.13
9861;DHT22;4969;52.304;4.968;2023-05-16T06:12:11;11.51;67.26
9861;DHT22;4969;52.304;4.968;2023-05-16T06:14:37;11.62;67.83
9861;DHT22;4969;52.304;4.968;2023-05-16T06:17:04;11.31;70.14
9861;DHT22;4969;52.304;4.968;2023-05-16T06:19:32;11.83;71.73
9861;DHT22;4969;52.304;4.968;2023-05-16T06:21:59;11.93;67.86
9861;DHT22;4969;52.304;4.968;2023-05-16T06:24:25;11.93;69.66
9861;DHT22;4969;52.304;4.968;2023-05-16T06:26:54;12.16;70.03
9861;DHT22;4969;52.304;4.968;2023-05-16T06:29:20;12.36;69.67
9861;DHT22;4969;52.304;4.968;2023-05-16T06:31:47;12.75;64.75
9861;DHT22;4969;52.304;4.968;2023-05-16T06:34:14;12.44;72.71
9861;DHT22;4969;52.304;4.968;2023-05-16T06:36:41;12.52;65.31
9861;DHT22;4969;52.304;4.968;2023-05-16T06:39:08;11.93;65.81
9861;DHT22;4969;52.304;4.968;2023-05-16T06:41:35;12.37;70.07
9861;DHT22;4969;52.304;4.968;2023-05-16T06:44:02;12.44;64.15
9861;DHT22;4969;52.304;4.968;2023-05-16T06:46:29;12.72;62.95
9861;DHT22;4969;52.304;4.968;2023-05-16T06:48:55;12.78;64.92
9861;DHT22;4969;52.304;4.968;2023-05-16T06:51:22;12.88;65.76
9861;DHT22;4969;52.304;4.968;2023-05-16T06:53:50;13.44;69.52
9861;DHT22;4969;52.304;4.968;2023-05-16T06:56:16;12.99;63.49
9861;DHT22;4969;52.304;4.968;2023-05-16T06:58:43;12.91;63.87
9861;DHT22;4969;52.304;4.968;2023-05-16T07:01:10;12.73;64.46
9861;DHT22;4969;52.304;4.968;2023-05-16T07:03:36;12.75;71.24
9861;DHT22;4969;52.304;4.968;2023-05-16T07:06:03;12.72;64.92
9861;DHT22;4969;52.304;4.968;2023-05-16T07:08:29;12.50;67.55
9861;DHT22;4969;52.304;4.968;2023-05-16T07:10:57;12.80;72.50
9861;DHT22;4969;52.304;4.968;2023-05-16T07:13:24;12.93;63.36
9861;DHT22;4969;52.304;4.968;2023-05-16T07:15:51;12.83;63.60
9861;DHT22;4969;52.304;4.968;2023-05-16T07:18:17;12.78;67.88
9861;DHT22;4969;52.304;4.968;2023-05-16T07:20:44;12.86;63.73
9861;DHT22;4969;52.304;4.968;2023-05-16T07:23:10;12.97;60.84
9861;DHT22;4969;52.304;4.968;2023-05-16T07:25:37;12.50;59.73
9861;DHT22;4969;52.304;4.968;2023-05-16T07:28:05;12.50;66.23
9861;DHT22;4969;52.304;4.968;2023-05-16T07:30:32;12.64;62.79
9861;DHT22;4969;52.304;4.968;2023-05-16T07:32:58;12.55;64.90
9861;DHT22;4969;52.304;4.968;2023-05-16T07:35:25;13.07;62.51
9861;DHT22;4969;52.304;4.968;2023-05-16T07:37:52;13.52;68.56
9861;DHT22;4969;52.304;4.968;2023-05-16T07:40:18;13.03;63.33
9861;DHT22;4969;52.304;4.968;2023-05-16T07:42:50;12.95;69.18
9861;DHT22;4969;52.304;4.968;2023-05-16T07:45:18;13.02;61.92
9861;DHT22;4969;52.304;4.968;2023-05-16T07:47:44;12.79;63.07
9861;DHT22;4969;52.304;4.968;2023-05-16T07:50:11;12.88;62.31
9861;DHT22;4969;52.304;4.968;2023-05-16T07:52:38;12.88;62.69
9861;DHT22;4969;52.304;4.968;2023-05-16T07:55:05;12.92;64.24
9861;DHT22;4969;52.304;4.968;2023-05-16T07:57:32;12.68;61.61
9861;DHT22;4969;52.304;4.968;2023-05-16T07:59:58;12.96;66.42
9861;DHT22;4969;52.304;4.968;2023-05-16T08:02:27;13.66;69.99
9861;DHT22;4969;52.304;4.968;2023-05-16T08:04:54;14.07;66.25
9861;DHT22;4969;52.304;4.968;2023-05-16T08:07:21;14.10;58.60
9861;DHT22;4969;52.304;4.968;2023-05-16T08:09:48;13.61;60.84
9861;DHT22;4969;52.304;4.968;2023-05-16T08:12:15;13.06;59.63
9861;DHT22;4969;52.304;4.968;2023-05-16T08:14:41;12.58;60.93
9861;DHT22;4969;52.304;4.968;2023-05-16T08:17:08;13.03;60.97
9861;DHT22;4969;52.304;4.968;2023-05-16T08:19:36;13.69;62.09
9861;DHT22;4969;52.304;4.968;2023-05-16T08:22:05;13.44;61.05
9861;DHT22;4969;52.304;4.968;2023-05-16T08:24:31;13.81;59.77
9861;DHT22;4969;52.304;4.968;2023-05-16T08:26:58;13.88;59.70
9861;DHT22;4969;52.304;4.968;2023-05-16T08:29:25;14.06;64.07
9861;DHT22;4969;52.304;4.968;2023-05-16T08:31:51;13.51;60.00
9861;DHT22;4969;52.304;4.968;2023-05-16T08:34:18;13.42;59.40
9861;DHT22;4969;52.304;4.968;2023-05-16T08:36:46;13.41;59.69
9861;DHT22;4969;52.304;4.968;2023-05-16T08:39:13;13.77;58.90
9861;DHT22;4969;52.304;4.968;2023-05-16T08:41:40;13.99;62.98
9861;DHT22;4969;52.304;4.968;2023-05-16T08:44:06;14.10;59.42
9861;DHT22;4969;52.304;4.968;2023-05-16T08:46:35;13.50;58.39
9861;DHT22;4969;52.304;4.968;2023-05-16T08:49:03;13.57;56.79
9861;DHT22;4969;52.304;4.968;2023-05-16T08:51:32;13.52;58.01
9861;DHT22;4969;52.304;4.968;2023-05-16T08:54:05;13.97;58.38
9861;DHT22;4969;52.304;4.968;2023-05-16T08:56:35;14.09;62.68
9861;DHT22;4969;52.304;4.968;2023-05-16T08:59:03;13.42;58.96
9861;DHT22;4969;52.304;4.968;2023-05-16T09:01:30;13.63;63.23
9861;DHT22;4969;52.304;4.968;2023-05-16T09:03:57;13.12;60.18
9861;DHT22;4969;52.304;4.968;2023-05-16T09:06:24;13.14;62.06
9861;DHT22;4969;52.304;4.968;2023-05-16T09:08:51;13.90;66.32
9861;DHT22;4969;52.304;4.968;2023-05-16T09:11:19;13.99;65.42
9861;DHT22;4969;52.304;4.968;2023-05-16T09:13:46;14.20;61.61
9861;DHT22;4969;52.304;4.968;2023-05-16T09:16:14;14.00;59.16
9861;DHT22;4969;52.304;4.968;2023-05-16T09:18:42;13.52;58.54
9861;DHT22;4969;52.304;4.968;2023-05-16T09:21:11;13.27;63.69
9861;DHT22;4969;52.304;4.968;2023-05-16T09:23:38;14.09;59.83
9861;DHT22;4969;52.304;4.968;2023-05-16T09:26:04;15.24;54.83
9861;DHT22;4969;52.304;4.968;2023-05-16T09:28:36;14.54;57.66
9861;DHT22;4969;52.304;4.968;2023-05-16T09:31:03;14.30;62.70
9861;DHT22;4969;52.304;4.968;2023-05-16T09:33:30;15.17;61.16
9861;DHT22;4969;52.304;4.968;2023-05-16T09:35:57;14.81;60.34
9861;DHT22;4969;52.304;4.968;2023-05-16T09:38:25;14.92;60.83
9861;DHT22;4969;52.304;4.968;2023-05-16T09:40:52;14.93;62.01
9861;DHT22;4969;52.304;4.968;2023-05-16T09:43:21;14.96;60.37
9861;DHT22;4969;52.304;4.968;2023-05-16T09:45:49;14.65;60.88
9861;DHT22;4969;52.304;4.968;2023-05-16T09:48:16;14.57;55.52
9861;DHT22;4969;52.304;4.968;2023-05-16T09:50:46;14.45;56.13
9861;DHT22;4969;52.304;4.968;2023-05-16T09:53:15;13.97;58.43
9861;DHT22;4969;52.304;4.968;2023-05-16T09:55:41;14.33;61.68
9861;DHT22;4969;52.304;4.968;2023-05-16T09:58:08;13.95;57.12
9861;DHT22;4969;52.304;4.968;2023-05-16T10:00:35;14.57;61.09
9861;DHT22;4969;52.304;4.968;2023-05-16T10:03:04;14.38;62.32
9861;DHT22;4969;52.304;4.968;2023-05-16T10:05:30;14.45;64.20
9861;DHT22;4969;52.304;4.968;2023-05-16T10:07:57;14.38;62.83
9861;DHT22;4969;52.304;4.968;2023-05-16T10:10:24;14.45;57.08
9861;DHT22;4969;52.304;4.968;2023-05-16T10:12:55;14.16;53.88
9861;DHT22;4969;52.304;4.968;2023-05-16T10:15:24;13.61;57.85
9861;DHT22;4969;52.304;4.968;2023-05-16T10:17:52;13.52;54.92
9861;DHT22;4969;52.304;4.968;2023-05-16T10:20:22;14.09;54.35
9861;DHT22;4969;52.304;4.968;2023-05-16T10:22:52;14.16;54.63
9861;DHT22;4969;52.304;4.968;2023-05-16T10:25:24;14.06;55.12
9861;DHT22;4969;52.304;4.968;2023-05-16T10:27:51;14.38;56.63
9861;DHT22;4969;52.304;4.968;2023-05-16T10:30:18;13.96;55.71
9861;DHT22;4969;52.304;4.968;2023-05-16T10:32:45;14.17;54.39
9861;DHT22;4969;52.304;4.968;2023-05-16T10:35:13;14.47;54.23
9861;DHT22;4969;52.304;4.968;2023-05-16T10:37:41;14.42;55.78
9861;DHT22;4969;52.304;4.968;2023-05-16T10:40:09;14.50;57.73
9861;DHT22;4969;52.304;4.968;2023-05-16T10:42:36;14.26;55.35
9861;DHT22;4969;52.304;4.968;2023-05-16T10:45:15;14.51;58.11
9861;DHT22;4969;52.304;4.968;2023-05-16T10:47:50;13.71;55.14
9861;DHT22;4969;52.304;4.968;2023-05-16T10:50:29;14.13;55.29
9861;DHT22;4969;52.304;4.968;2023-05-16T10:53:11;14.20;55.17
9861;DHT22;4969;52.304;4.968;2023-05-16T10:55:37;14.76;55.02
9861;DHT22;4969;52.304;4.968;2023-05-16T10:58:04;14.96;56.43
9861;DHT22;4969;52.304;4.968;2023-05-16T11:00:30;14.65;58.32
9861;DHT22;4969;52.304;4.968;2023-05-16T11:03:03;14.69;54.79
9861;DHT22;4969;52.304;4.968;2023-05-16T11:05:31;14.30;53.67
9861;DHT22;4969;52.304;4.968;2023-05-16T11:08:05;14.34;52.91
9861;DHT22;4969;52.304;4.968;2023-05-16T11:10:32;14.92;58.52
9861;DHT22;4969;52.304;4.968;2023-05-16T11:13:02;15.11;62.51
9861;DHT22;4969;52.304;4.968;2023-05-16T11:15:31;14.41;55.17
9861;DHT22;4969;52.304;4.968;2023-05-16T11:18:06;14.12;55.20
9861;DHT22;4969;52.304;4.968;2023-05-16T11:20:34;14.33;54.56
9861;DHT22;4969;52.304;4.968;2023-05-16T11:23:18;14.42;55.90
9861;DHT22;4969;52.304;4.968;2023-05-16T11:25:47;14.73;56.77
9861;DHT22;4969;52.304;4.968;2023-05-16T11:28:16;14.58;54.41
9861;DHT22;4969;52.304;4.968;2023-05-16T11:30:45;14.18;57.51
9861;DHT22;4969;52.304;4.968;2023-05-16T11:33:12;14.30;59.46
9861;DHT22;4969;52.304;4.968;2023-05-16T11:35:38;14.45;57.29
9861;DHT22;4969;52.304;4.968;2023-05-16T11:38:05;14.26;55.59
9861;DHT22;4969;52.304;4.968;2023-05-16T11:40:33;14.64;64.25
9861;DHT22;4969;52.304;4.968;2023-05-16T11:43:00;14.88;54.42
9861;DHT22;4969;52.304;4.968;2023-05-16T11:45:27;15.10;61.29
9861;DHT22;4969;52.304;4.968;2023-05-16T11:48:00;14.57;53.78
9861;DHT22;4969;52.304;4.968;2023-05-16T11:50:28;14.50;56.01
9861;DHT22;4969;52.304;4.968;2023-05-16T11:52:55;14.72;54.34
9861;DHT22;4969;52.304;4.968;2023-05-16T11:55:24;14.62;53.62
9861;DHT22;4969;52.304;4.968;2023-05-16T11:57:53;14.47;53.63
9861;DHT22;4969;52.304;4.968;2023-05-16T12:00:22;14.86;52.80
9861;DHT22;4969;52.304;4.968;2023-05-16T12:02:51;14.52;54.47
9861;DHT22;4969;52.304;4.968;2023-05-16T12:05:19;14.73;53.76
9861;DHT22;4969;52.304;4.968;2023-05-16T12:07:50;15.75;62.68
9861;DHT22;4969;52.304;4.968;2023-05-16T12:10:18;14.60;52.73
9861;DHT22;4969;52.304;4.968;2023-05-16T12:12:47;14.71;56.05
9861;DHT22;4969;52.304;4.968;2023-05-16T12:15:15;14.52;52.77
9861;DHT22;4969;52.304;4.968;2023-05-16T12:17:42;15.13;52.63
9861;DHT22;4969;52.304;4.968;2023-05-16T12:20:09;14.90;55.74
9861;DHT22;4969;52.304;4.968;2023-05-16T12:22:38;14.79;53.27
9861;DHT22;4969;52.304;4.968;2023-05-16T12:25:21;15.02;52.59
9861;DHT22;4969;52.304;4.968;2023-05-16T12:27:48;15.48;59.00
9861;DHT22;4969;52.304;4.968;2023-05-16T12:30:17;14.69;51.94
9861;DHT22;4969;52.304;4.968;2023-05-16T12:32:43;14.82;53.38
9861;DHT22;4969;52.304;4.968;2023-05-16T12:35:10;15.09;53.72
9861;DHT22;4969;52.304;4.968;2023-05-16T12:37:37;15.00;51.65
9861;DHT22;4969;52.304;4.968;2023-05-16T12:40:05;15.50;58.84
9861;DHT22;4969;52.304;4.968;2023-05-16T12:42:33;15.14;51.68
9861;DHT22;4969;52.304;4.968;2023-05-16T12:44:59;15.37;50.13
9861;DHT22;4969;52.304;4.968;2023-05-16T12:47:35;15.18;51.01
9861;DHT22;4969;52.304;4.968;2023-05-16T12:50:08;15.45;53.62
9861;DHT22;4969;52.304;4.968;2023-05-16T12:52:36;15.20;49.27
9861;DHT22;4969;52.304;4.968;2023-05-16T12:55:03;16.19;53.92
9861;DHT22;4969;52.304;4.968;2023-05-16T12:57:30;15.79;48.57
9861;DHT22;4969;52.304;4.968;2023-05-16T12:59:56;15.71;47.12
9861;DHT22;4969;52.304;4.968;2023-05-16T13:02:23;15.30;47.77
9861;DHT22;4969;52.304;4.968;2023-05-16T13:04:51;15.17;49.05
9861;DHT22;4969;52.304;4.968;2023-05-16T13:07:18;15.24;51.26
9861;DHT22;4969;52.304;4.968;2023-05-16T13:09:44;15.33;47.88
9861;DHT22;4969;52.304;4.968;2023-05-16T13:12:11;15.40;48.55
9861;DHT22;4969;52.304;4.968;2023-05-16T13:14:38;15.40;47.37
9861;DHT22;4969;52.304;4.968;2023-05-16T13:17:04;15.37;46.91
9861;DHT22;4969;52.304;4.968;2023-05-16T13:19:31;15.18;48.69
9861;DHT22;4969;52.304;4.968;2023-05-16T13:21:59;15.00;49.18
9861;DHT22;4969;52.304;4.968;2023-05-16T13:24:26;15.34;49.63
9861;DHT22;4969;52.304;4.968;2023-05-16T13:26:52;15.26;48.28
9861;DHT22;4969;52.304;4.968;2023-05-16T13:29:19;15.17;48.66
9861;DHT22;4969;52.304;4.968;2023-05-16T13:31:45;15.57;50.18
9861;DHT22;4969;52.304;4.968;2023-05-16T13:34:12;15.26;47.79
9861;DHT22;4969;52.304;4.968;2023-05-16T13:36:38;15.64;48.69
9861;DHT22;4969;52.304;4.968;2023-05-16T13:39:06;15.69;47.74
9861;DHT22;4969;52.304;4.968;2023-05-16T13:41:33;15.20;54.57
9861;DHT22;4969;52.304;4.968;2023-05-16T13:44:02;15.03;48.31
9861;DHT22;4969;52.304;4.968;2023-05-16T13:46:28;15.07;52.38
9861;DHT22;4969;52.304;4.968;2023-05-16T13:48:55;15.10;47.22
9861;DHT22;4969;52.304;4.968;2023-05-16T13:51:22;14.99;47.69
9861;DHT22;4969;52.304;4.968;2023-05-16T13:53:48;15.17;48.72
9861;DHT22;4969;52.304;4.968;2023-05-16T13:56:16;15.09;49.70
9861;DHT22;4969;52.304;4.968;2023-05-16T13:58:43;16.03;46.73
9861;DHT22;4969;52.304;4.968;2023-05-16T14:01:09;15.61;46.57
9861;DHT22;4969;52.304;4.968;2023-05-16T14:03:37;15.57;48.75
9861;DHT22;4969;52.304;4.968;2023-05-16T14:06:04;15.13;47.46
9861;DHT22;4969;52.304;4.968;2023-05-16T14:08:31;15.17;48.78
9861;DHT22;4969;52.304;4.968;2023-05-16T14:10:57;15.03;50.46
9861;DHT22;4969;52.304;4.968;2023-05-16T14:13:25;15.10;46.80
9861;DHT22;4969;52.304;4.968;2023-05-16T14:15:52;15.13;48.15
9861;DHT22;4969;52.304;4.968;2023-05-16T14:18:18;15.10;50.52
9861;DHT22;4969;52.304;4.968;2023-05-16T14:20:45;15.11;49.47
9861;DHT22;4969;52.304;4.968;2023-05-16T14:23:11;15.18;53.82
9861;DHT22;4969;52.304;4.968;2023-05-16T14:25:38;15.34;51.27
9861;DHT22;4969;52.304;4.968;2023-05-16T14:28:05;15.02;51.03
9861;DHT22;4969;52.304;4.968;2023-05-16T14:30:32;15.02;51.50
9861;DHT22;4969;52.304;4.968;2023-05-16T14:32:59;15.78;55.23
9861;DHT22;4969;52.304;4.968;2023-05-16T14:35:27;15.61;48.84
9861;DHT22;4969;52.304;4.968;2023-05-16T14:37:55;15.04;51.08
9861;DHT22;4969;52.304;4.968;2023-05-16T14:40:21;15.30;51.40
9861;DHT22;4969;52.304;4.968;2023-05-16T14:42:48;15.53;52.35
9861;DHT22;4969;52.304;4.968;2023-05-16T14:45:15;15.34;52.35
9861;DHT22;4969;52.304;4.968;2023-05-16T14:47:43;15.36;53.11
9861;DHT22;4969;52.304;4.968;2023-05-16T14:50:10;15.28;53.98
9861;DHT22;4969;52.304;4.968;2023-05-16T14:52:38;15.23;52.20
9861;DHT22;4969;52.304;4.968;2023-05-16T14:55:05;15.33;53.18
9861;DHT22;4969;52.304;4.968;2023-05-16T14:57:32;15.20;52.40
9861;DHT22;4969;52.304;4.968;2023-05-16T14:59:58;15.37;56.20
9861;DHT22;4969;52.304;4.968;2023-05-16T15:02:25;15.14;54.10
9861;DHT22;4969;52.304;4.968;2023-05-16T15:04:53;14.95;53.56
9861;DHT22;4969;52.304;4.968;2023-05-16T15:07:19;14.95;53.85
9861;DHT22;4969;52.304;4.968;2023-05-16T15:09:46;14.68;55.54
9861;DHT22;4969;52.304;4.968;2023-05-16T15:12:13;14.44;58.32
9861;DHT22;4969;52.304;4.968;2023-05-16T15:14:40;14.35;60.63
9861;DHT22;4969;52.304;4.968;2023-05-16T15:17:06;14.26;57.48
9861;DHT22;4969;52.304;4.968;2023-05-16T15:19:33;14.50;57.09
9861;DHT22;4969;52.304;4.968;2023-05-16T15:22:01;14.02;58.26
9861;DHT22;4969;52.304;4.968;2023-05-16T15:24:27;13.93;58.56
9861;DHT22;4969;52.304;4.968;2023-05-16T15:26:54;14.26;61.68
9861;DHT22;4969;52.304;4.968;2023-05-16T15:29:20;14.60;58.50
9861;DHT22;4969;52.304;4.968;2023-05-16T15:31:47;14.10;58.84
9861;DHT22;4969;52.304;4.968;2023-05-16T15:34:14;14.02;60.90
9861;DHT22;4969;52.304;4.968;2023-05-16T15:36:40;14.13;62.52
9861;DHT22;4969;52.304;4.968;2023-05-16T15:39:08;14.61;61.37
9861;DHT22;4969;52.304;4.968;2023-05-16T15:41:35;14.12;62.88
9861;DHT22;4969;52.304;4.968;2023-05-16T15:44:02;14.13;63.03
9861;DHT22;4969;52.304;4.968;2023-05-16T15:46:29;14.27;65.15
9861;DHT22;4969;52.304;4.968;2023-05-16T15:48:57;14.17;64.44
9861;DHT22;4969;52.304;4.968;2023-05-16T15:51:23;14.52;63.18
9861;DHT22;4969;52.304;4.968;2023-05-16T15:53:51;14.55;64.30
9861;DHT22;4969;52.304;4.968;2023-05-16T15:56:19;14.69;65.29
9861;DHT22;4969;52.304;4.968;2023-05-16T15:58:46;14.86;60.72
9861;DHT22;4969;52.304;4.968;2023-05-16T16:01:12;14.27;62.84
9861;DHT22;4969;52.304;4.968;2023-05-16T16:03:39;14.67;65.84